createdAt,value
2022-11-05T00:00:55.651Z,70.20
2022-11-05T00:02:15.875Z,69.93
2022-11-05T00:03:36.326Z,70.07
2022-11-05T00:04:56.283Z,69.92
2022-11-05T00:06:16.531Z,70.04
2022-11-05T00:07:36.988Z,69.96
2022-11-05T00:08:57.371Z,69.94
2022-11-05T00:10:00.519Z,69.96
2022-11-05T00:11:02.093Z,69.95
2022-11-05T00:12:23.542Z,69.90
2022-11-05T00:13:43.697Z,69.79
2022-11-05T00:15:04.092Z,69.80
2022-11-05T00:16:24.129Z,69.74
2022-11-05T00:17:25.702Z,69.57
2022-11-05T00:18:27.208Z,69.90
2022-11-05T00:19:28.737Z,69.94
2022-11-05T00:20:30.278Z,69.85
2022-11-05T00:21:53.807Z,69.75
2022-11-05T00:23:20.310Z,69.95
2022-11-05T00:24:40.586Z,69.93
2022-11-05T00:25:42.142Z,69.99
2022-11-05T00:26:43.747Z,69.96
2022-11-05T00:27:51.857Z,70.00
2022-11-05T00:28:53.346Z,69.92
2022-11-05T00:29:54.890Z,69.97
2022-11-05T00:31:04.934Z,70.10
2022-11-05T00:32:06.423Z,70.11
2022-11-05T00:33:08.130Z,70.21
2022-11-05T00:34:09.846Z,70.27
2022-11-05T00:35:11.474Z,70.22
2022-11-05T00:36:12.978Z,70.37
2022-11-05T00:37:14.422Z,70.04
2022-11-05T00:38:15.881Z,70.09
2022-11-05T00:39:17.397Z,70.16
2022-11-05T00:40:18.878Z,70.07
2022-11-05T00:41:20.383Z,69.94
2022-11-05T00:42:40.722Z,70.00
2022-11-05T00:44:01.074Z,69.99
2022-11-05T00:45:02.817Z,70.08
2022-11-05T00:46:04.357Z,69.85
2022-11-05T00:47:24.599Z,69.98
2022-11-05T00:48:44.693Z,69.82
2022-11-05T00:49:46.151Z,69.77
2022-11-05T00:50:47.922Z,69.77
2022-11-05T00:52:09.367Z,69.74
2022-11-05T00:53:11.399Z,69.65
2022-11-05T00:54:13.132Z,69.74
2022-11-05T00:55:14.582Z,69.78
2022-11-05T00:56:16.126Z,69.73
2022-11-05T00:57:17.616Z,69.63
2022-11-05T00:58:19.662Z,69.65
2022-11-05T00:59:21.097Z,69.83
2022-11-05T01:00:23.837Z,69.60
2022-11-05T01:01:25.429Z,69.66
2022-11-05T01:02:27.047Z,69.52
2022-11-05T01:03:35.078Z,69.50
2022-11-05T01:04:36.543Z,69.43
2022-11-05T01:05:38.798Z,69.64
2022-11-05T01:06:40.338Z,69.60
2022-11-05T01:07:41.825Z,69.64
2022-11-05T01:08:43.707Z,69.76
2022-11-05T01:09:45.169Z,69.54
2022-11-05T01:10:47.374Z,69.55
2022-11-05T01:11:49.366Z,69.55
2022-11-05T01:12:50.905Z,69.64
2022-11-05T01:13:52.379Z,69.65
2022-11-05T01:14:53.836Z,69.56
2022-11-05T01:15:55.474Z,69.52
2022-11-05T01:16:56.908Z,69.47
2022-11-05T01:17:58.354Z,69.57
2022-11-05T01:19:00.614Z,69.55
2022-11-05T01:20:02.173Z,69.56
2022-11-05T01:21:13.195Z,69.62
2022-11-05T01:22:14.741Z,69.48
2022-11-05T01:23:16.773Z,69.68
2022-11-05T01:24:18.477Z,69.56
2022-11-05T01:25:19.981Z,69.48
2022-11-05T01:26:21.453Z,69.24
2022-11-05T01:27:22.902Z,69.17
2022-11-05T01:28:24.462Z,69.32
2022-11-05T01:29:25.917Z,69.24
2022-11-05T01:30:27.357Z,69.28
2022-11-05T01:31:29.188Z,69.21
2022-11-05T01:32:30.789Z,69.09
2022-11-05T01:33:32.278Z,68.94
2022-11-05T01:34:33.793Z,68.92
2022-11-05T01:35:35.307Z,68.89
2022-11-05T01:36:36.749Z,69.05
2022-11-05T01:37:38.301Z,69.02
2022-11-05T01:38:39.817Z,68.82
2022-11-05T01:39:41.327Z,68.85
2022-11-05T01:40:42.878Z,68.86
2022-11-05T01:41:44.305Z,68.87
2022-11-05T01:42:45.770Z,68.61
2022-11-05T01:43:57.502Z,68.80
2022-11-05T01:45:03.445Z,68.64
2022-11-05T01:46:04.956Z,68.74
2022-11-05T01:47:07.376Z,68.77
2022-11-05T01:48:09.693Z,68.65
2022-11-05T01:49:37.412Z,68.55
2022-11-05T01:50:45.111Z,68.43
2022-11-05T01:51:46.672Z,68.48
2022-11-05T01:52:48.264Z,68.44
2022-11-05T01:53:58.322Z,68.46
2022-11-05T01:54:59.757Z,68.35
2022-11-05T01:56:05.577Z,68.31
2022-11-05T01:57:08.008Z,68.09
2022-11-05T01:58:09.685Z,68.24
2022-11-05T01:59:28.195Z,68.17
2022-11-05T02:00:31.468Z,68.34
2022-11-05T02:01:33.114Z,68.37
2022-11-05T02:02:34.771Z,68.33
2022-11-05T02:03:36.468Z,68.53
2022-11-05T02:04:45.540Z,68.75
2022-11-05T02:05:47.039Z,68.65
2022-11-05T02:06:48.536Z,68.54
2022-11-05T02:07:50.051Z,68.77
2022-11-05T02:08:57.243Z,68.73
2022-11-05T02:10:08.456Z,68.59
2022-11-05T02:11:11.105Z,68.70
2022-11-05T02:12:12.592Z,68.87
2022-11-05T02:13:14.130Z,68.79
2022-11-05T02:14:18.502Z,68.89
2022-11-05T02:15:52.462Z,68.94
2022-11-05T02:17:03.116Z,68.95
2022-11-05T02:18:04.556Z,69.08
2022-11-05T02:19:06.037Z,69.08
2022-11-05T02:20:39.765Z,69.11
2022-11-05T02:21:44.170Z,68.94
2022-11-05T02:22:45.682Z,69.02
2022-11-05T02:23:47.141Z,69.18
2022-11-05T02:24:51.914Z,69.48
2022-11-05T02:26:11.650Z,69.34
2022-11-05T02:27:26.849Z,69.33
2022-11-05T02:28:36.883Z,69.46
2022-11-05T02:29:44.052Z,69.39
2022-11-05T02:31:04.749Z,69.30
2022-11-05T02:32:11.937Z,69.29
2022-11-05T02:33:16.442Z,69.45
2022-11-05T02:34:25.312Z,69.56
2022-11-05T02:35:45.271Z,69.45
2022-11-05T02:36:48.513Z,69.49
2022-11-05T02:37:51.706Z,69.35
2022-11-05T02:38:53.216Z,69.55
2022-11-05T02:39:56.493Z,69.35
2022-11-05T02:41:08.645Z,69.54
2022-11-05T02:42:12.741Z,69.68
2022-11-05T02:43:30.829Z,69.62
2022-11-05T02:44:32.363Z,69.45
2022-11-05T02:45:49.260Z,69.59
2022-11-05T02:46:53.610Z,69.29
2022-11-05T02:47:59.625Z,69.45
2022-11-05T02:49:01.169Z,69.21
2022-11-05T02:50:11.545Z,69.21
2022-11-05T02:51:16.536Z,69.42
2022-11-05T02:52:36.354Z,69.26
2022-11-05T02:53:40.922Z,69.34
2022-11-05T02:54:52.747Z,69.27
2022-11-05T02:55:54.242Z,69.13
2022-11-05T02:56:55.690Z,68.91
2022-11-05T02:57:59.756Z,68.76
2022-11-05T02:59:01.196Z,68.85
2022-11-05T03:00:04.805Z,68.85
2022-11-05T03:01:07.167Z,68.76
2022-11-05T03:02:08.788Z,68.88
2022-11-05T03:03:33.238Z,68.66
2022-11-05T03:04:34.777Z,68.61
2022-11-05T03:06:05.406Z,68.68
2022-11-05T03:07:25.455Z,68.60
2022-11-05T03:08:35.915Z,68.57
2022-11-05T03:09:43.273Z,68.46
2022-11-05T03:10:51.733Z,68.46
2022-11-05T03:11:59.259Z,68.56
2022-11-05T03:13:03.669Z,68.48
2022-11-05T03:14:28.166Z,68.22
2022-11-05T03:15:35.687Z,68.27
2022-11-05T03:16:44.025Z,68.27
2022-11-05T03:17:52.545Z,68.30
2022-11-05T03:19:09.115Z,68.01
2022-11-05T03:20:18.631Z,67.97
2022-11-05T03:21:24.947Z,67.97
2022-11-05T03:22:28.587Z,68.00
2022-11-05T03:23:37.836Z,68.10
2022-11-05T03:24:40.732Z,68.18
2022-11-05T03:26:02.689Z,68.17
2022-11-05T03:27:05.897Z,67.91
2022-11-05T03:28:07.395Z,67.92
2022-11-05T03:29:09.736Z,68.11
2022-11-05T03:30:11.394Z,67.97
2022-11-05T03:31:12.904Z,67.99
2022-11-05T03:32:14.625Z,67.93
2022-11-05T03:33:18.122Z,67.79
2022-11-05T03:34:20.089Z,67.66
2022-11-05T03:35:24.605Z,67.72
2022-11-05T03:36:27.363Z,67.67
2022-11-05T03:37:29.721Z,67.79
2022-11-05T03:38:32.557Z,67.49
2022-11-05T03:39:35.989Z,67.69
2022-11-05T03:40:37.488Z,67.38
2022-11-05T03:41:39.465Z,67.27
2022-11-05T03:42:41.255Z,67.49
2022-11-05T03:43:44.885Z,67.42
2022-11-05T03:44:47.902Z,67.48
2022-11-05T03:45:52.154Z,67.57
2022-11-05T03:46:54.144Z,67.34
2022-11-05T03:47:56.881Z,67.42
2022-11-05T03:48:58.800Z,67.39
2022-11-05T03:50:03.241Z,67.34
2022-11-05T03:51:23.674Z,67.49
2022-11-05T03:52:26.033Z,67.34
2022-11-05T03:53:30.523Z,67.17
2022-11-05T03:54:32.698Z,66.99
2022-11-05T03:55:44.571Z,67.41
2022-11-05T03:56:46.018Z,67.39
2022-11-05T03:57:47.456Z,67.26
2022-11-05T03:58:48.970Z,67.32
2022-11-05T03:59:50.511Z,67.35
2022-11-05T04:00:52.040Z,67.14
2022-11-05T04:01:53.915Z,67.32
2022-11-05T04:02:55.649Z,67.34
2022-11-05T04:03:57.296Z,67.14
2022-11-05T04:04:58.795Z,67.18
2022-11-05T04:06:18.889Z,67.20
2022-11-05T04:07:39.364Z,67.14
2022-11-05T04:08:59.566Z,67.18
2022-11-05T04:10:19.706Z,67.36
2022-11-05T04:11:39.961Z,67.12
2022-11-05T04:13:00.121Z,67.30
2022-11-05T04:14:01.735Z,67.22
2022-11-05T04:15:03.273Z,67.30
2022-11-05T04:16:23.417Z,67.22
2022-11-05T04:17:24.915Z,67.09
2022-11-05T04:18:26.390Z,67.24
2022-11-05T04:19:46.197Z,67.15
2022-11-05T04:21:06.107Z,66.87
2022-11-05T04:22:26.410Z,66.89
2022-11-05T04:23:46.655Z,66.87
2022-11-05T04:24:48.205Z,66.87
2022-11-05T04:25:49.681Z,66.86
2022-11-05T04:26:51.187Z,66.86
2022-11-05T04:27:52.734Z,67.07
2022-11-05T04:29:12.804Z,67.12
2022-11-05T04:30:24.275Z,66.90
2022-11-05T04:31:26.522Z,67.11
2022-11-05T04:32:28.257Z,67.22
2022-11-05T04:33:29.757Z,66.83
2022-11-05T04:34:31.301Z,66.86
2022-11-05T04:35:34.107Z,66.91
2022-11-05T04:36:35.568Z,66.89
2022-11-05T04:37:37.079Z,67.06
2022-11-05T04:38:38.567Z,66.69
2022-11-05T04:39:40.160Z,66.80
2022-11-05T04:40:41.690Z,66.61
2022-11-05T04:41:43.160Z,66.81
2022-11-05T04:42:44.679Z,66.74
2022-11-05T04:43:46.161Z,67.02
2022-11-05T04:44:47.765Z,66.86
2022-11-05T04:45:49.240Z,66.82
2022-11-05T04:46:50.679Z,66.82
2022-11-05T04:47:52.223Z,67.04
2022-11-05T04:48:53.657Z,66.85
2022-11-05T04:49:55.118Z,66.86
2022-11-05T04:50:56.618Z,67.02
2022-11-05T04:51:58.126Z,67.10
2022-11-05T04:52:59.765Z,66.85
2022-11-05T04:54:01.404Z,67.13
2022-11-05T04:55:03.085Z,67.25
2022-11-05T04:56:11.671Z,67.30
2022-11-05T04:57:13.169Z,67.25
2022-11-05T04:58:14.614Z,67.45
2022-11-05T04:59:16.171Z,67.30
2022-11-05T05:00:17.996Z,67.33
2022-11-05T05:01:20.531Z,67.71
2022-11-05T05:02:22.229Z,67.48
2022-11-05T05:03:23.769Z,67.45
2022-11-05T05:04:25.266Z,67.45
2022-11-05T05:05:26.766Z,67.23
2022-11-05T05:06:28.262Z,67.47
2022-11-05T05:07:29.757Z,67.31
2022-11-05T05:08:31.309Z,67.47
2022-11-05T05:09:32.765Z,67.48
2022-11-05T05:10:35.281Z,67.59
2022-11-05T05:11:36.802Z,67.45
2022-11-05T05:12:38.302Z,67.53
2022-11-05T05:13:39.913Z,67.53
2022-11-05T05:14:41.406Z,67.55
2022-11-05T05:15:42.877Z,67.68
2022-11-05T05:16:44.383Z,67.55
2022-11-05T05:17:50.039Z,67.79
2022-11-05T05:18:51.670Z,67.65
2022-11-05T05:20:11.972Z,67.65
2022-11-05T05:21:32.883Z,67.57
2022-11-05T05:22:34.405Z,67.50
2022-11-05T05:23:36.146Z,67.53
2022-11-05T05:24:37.689Z,67.73
2022-11-05T05:25:39.193Z,67.93
2022-11-05T05:26:44.380Z,67.92
2022-11-05T05:27:45.868Z,67.62
2022-11-05T05:28:47.355Z,67.66
2022-11-05T05:29:48.869Z,67.87
2022-11-05T05:30:53.596Z,67.96
2022-11-05T05:31:57.673Z,68.08
2022-11-05T05:33:01.527Z,68.21
2022-11-05T05:34:03.229Z,68.01
2022-11-05T05:35:04.850Z,67.63
2022-11-05T05:36:11.141Z,67.77
2022-11-05T05:37:13.006Z,67.89
2022-11-05T05:38:14.502Z,67.79
2022-11-05T05:39:16.037Z,67.55
2022-11-05T05:40:17.605Z,67.78
2022-11-05T05:41:19.149Z,67.82
2022-11-05T05:42:22.831Z,67.67
2022-11-05T05:43:24.279Z,67.83
2022-11-05T05:44:25.828Z,68.03
2022-11-05T05:45:27.331Z,67.88
2022-11-05T05:46:28.790Z,67.93
2022-11-05T05:47:30.306Z,67.75
2022-11-05T05:48:31.839Z,67.68
2022-11-05T05:49:33.340Z,67.87
2022-11-05T05:50:35.037Z,67.74
2022-11-05T05:51:41.798Z,67.71
2022-11-05T05:52:43.325Z,67.84
2022-11-05T05:53:44.884Z,68.13
2022-11-05T05:54:46.445Z,67.91
2022-11-05T05:55:47.909Z,68.00
2022-11-05T05:56:49.369Z,67.78
2022-11-05T05:57:50.929Z,67.53
2022-11-05T05:58:52.437Z,67.79
2022-11-05T05:59:54.001Z,67.59
2022-11-05T06:00:55.469Z,67.65
2022-11-05T06:01:57.133Z,67.81
2022-11-05T06:02:58.744Z,67.84
2022-11-05T06:04:00.281Z,67.79
2022-11-05T06:05:01.773Z,67.79
2022-11-05T06:06:04.201Z,67.73
2022-11-05T06:07:05.692Z,67.60
2022-11-05T06:08:07.197Z,68.04
2022-11-05T06:09:09.029Z,67.89
2022-11-05T06:10:10.521Z,67.72
2022-11-05T06:11:12.190Z,68.18
2022-11-05T06:12:13.662Z,68.07
2022-11-05T06:13:15.110Z,68.03
2022-11-05T06:14:16.673Z,68.03
2022-11-05T06:15:18.147Z,67.91
2022-11-05T06:16:19.605Z,68.05
2022-11-05T06:17:21.146Z,67.75
2022-11-05T06:18:22.602Z,67.80
2022-11-05T06:19:24.105Z,67.85
2022-11-05T06:20:25.657Z,67.76
2022-11-05T06:21:27.102Z,67.83
2022-11-05T06:22:28.566Z,67.67
2022-11-05T06:23:31.270Z,67.99
2022-11-05T06:24:32.754Z,68.01
2022-11-05T06:25:39.991Z,67.80
2022-11-05T06:26:43.293Z,67.31
2022-11-05T06:27:44.747Z,67.12
2022-11-05T06:28:46.321Z,67.19
2022-11-05T06:29:47.963Z,67.33
2022-11-05T06:30:52.259Z,67.30
2022-11-05T06:31:53.956Z,67.37
2022-11-05T06:32:55.424Z,67.42
2022-11-05T06:33:56.849Z,67.67
2022-11-05T06:34:58.377Z,67.08
2022-11-05T06:36:00.838Z,67.05
2022-11-05T06:37:02.291Z,66.99
2022-11-05T06:38:03.842Z,67.02
2022-11-05T06:39:05.304Z,67.14
2022-11-05T06:40:06.971Z,67.17
2022-11-05T06:41:10.445Z,67.24
2022-11-05T06:42:18.404Z,67.39
2022-11-05T06:43:20.684Z,67.35
2022-11-05T06:44:22.496Z,67.28
2022-11-05T06:45:24.169Z,67.29
2022-11-05T06:46:25.625Z,66.96
2022-11-05T06:47:27.134Z,67.07
2022-11-05T06:48:28.963Z,67.19
2022-11-05T06:49:30.429Z,66.97
2022-11-05T06:50:31.930Z,66.88
2022-11-05T06:51:33.409Z,67.00
2022-11-05T06:52:40.759Z,66.76
2022-11-05T06:53:42.630Z,66.84
2022-11-05T06:54:44.072Z,67.03
2022-11-05T06:55:48.054Z,67.01
2022-11-05T06:56:49.542Z,66.94
2022-11-05T06:57:51.050Z,67.26
2022-11-05T06:58:52.601Z,67.21
2022-11-05T06:59:59.964Z,67.18
2022-11-05T07:01:05.453Z,67.38
2022-11-05T07:02:07.549Z,67.15
2022-11-05T07:03:10.129Z,67.16
2022-11-05T07:04:12.184Z,67.22
2022-11-05T07:05:13.977Z,67.23
2022-11-05T07:06:15.468Z,67.22
2022-11-05T07:07:17.235Z,67.20
2022-11-05T07:08:18.725Z,67.18
2022-11-05T07:09:20.265Z,66.86
2022-11-05T07:10:21.849Z,66.95
2022-11-05T07:11:23.325Z,67.19
2022-11-05T07:12:24.778Z,66.97
2022-11-05T07:13:26.280Z,67.11
2022-11-05T07:14:27.717Z,67.26
2022-11-05T07:15:29.193Z,66.89
2022-11-05T07:16:30.667Z,66.92
2022-11-05T07:17:32.387Z,66.85
2022-11-05T07:18:33.851Z,66.43
2022-11-05T07:19:35.369Z,66.65
2022-11-05T07:20:36.804Z,66.83
2022-11-05T07:21:38.341Z,66.79
2022-11-05T07:22:39.788Z,67.13
2022-11-05T07:23:41.361Z,67.17
2022-11-05T07:24:43.738Z,66.87
2022-11-05T07:25:46.928Z,66.53
2022-11-05T07:26:48.388Z,66.46
2022-11-05T07:27:49.866Z,66.79
2022-11-05T07:28:51.310Z,66.30
2022-11-05T07:29:52.785Z,66.42
2022-11-05T07:30:54.358Z,66.55
2022-11-05T07:31:55.833Z,66.86
2022-11-05T07:32:57.323Z,66.72
2022-11-05T07:33:59.242Z,66.51
2022-11-05T07:35:00.733Z,66.52
2022-11-05T07:36:02.255Z,66.29
2022-11-05T07:37:03.761Z,66.71
2022-11-05T07:38:05.323Z,66.78
2022-11-05T07:39:08.587Z,66.75
2022-11-05T07:40:11.423Z,66.90
2022-11-05T07:41:12.906Z,66.93
2022-11-05T07:42:14.456Z,66.80
2022-11-05T07:43:15.949Z,66.70
2022-11-05T07:44:17.624Z,67.04
2022-11-05T07:45:19.176Z,66.79
2022-11-05T07:46:20.638Z,66.37
2022-11-05T07:47:22.080Z,66.66
2022-11-05T07:48:23.565Z,66.66
2022-11-05T07:49:25.109Z,66.44
2022-11-05T07:50:27.459Z,66.66
2022-11-05T07:51:29.092Z,66.62
2022-11-05T07:52:31.466Z,66.50
2022-11-05T07:53:32.941Z,66.56
2022-11-05T07:54:34.391Z,66.34
2022-11-05T07:55:36.089Z,66.54
2022-11-05T07:56:37.569Z,66.31
2022-11-05T07:57:43.067Z,66.42
2022-11-05T07:58:44.563Z,66.63
2022-11-05T07:59:46.040Z,66.80
2022-11-05T08:00:48.023Z,67.05
2022-11-05T08:01:49.822Z,66.64
2022-11-05T08:03:07.177Z,66.97
2022-11-05T08:04:09.560Z,66.87
2022-11-05T08:05:10.998Z,66.57
2022-11-05T08:06:12.551Z,66.72
2022-11-05T08:07:13.985Z,66.83
2022-11-05T08:08:18.713Z,66.73
2022-11-05T08:09:20.194Z,66.72
2022-11-05T08:10:22.447Z,66.61
2022-11-05T08:11:23.928Z,66.81
2022-11-05T08:12:25.438Z,66.68
2022-11-05T08:13:26.917Z,66.71
2022-11-05T08:14:28.370Z,66.42
2022-11-05T08:15:29.887Z,66.61
2022-11-05T08:16:31.389Z,67.57
2022-11-05T08:17:32.918Z,68.22
2022-11-05T08:18:34.405Z,67.24
2022-11-05T08:19:35.904Z,66.29
2022-11-05T08:20:38.487Z,67.12
2022-11-05T08:21:40.002Z,67.15
2022-11-05T08:22:42.379Z,65.18
2022-11-05T08:23:44.002Z,64.45
2022-11-05T08:24:45.510Z,64.58
2022-11-05T08:25:46.974Z,64.78
2022-11-05T08:26:48.449Z,64.42
2022-11-05T08:27:59.643Z,63.30
2022-11-05T08:29:01.230Z,61.63
2022-11-05T08:30:02.916Z,61.88
2022-11-05T08:31:04.479Z,62.31
2022-11-05T08:32:05.960Z,62.26
2022-11-05T08:33:08.860Z,63.12
2022-11-05T08:34:10.804Z,63.05
2022-11-05T08:35:12.393Z,62.85
2022-11-05T08:36:13.876Z,62.04
2022-11-05T08:37:15.384Z,61.80
2022-11-05T08:38:17.638Z,61.61
2022-11-05T08:39:19.880Z,61.19
2022-11-05T08:40:21.351Z,61.77
2022-11-05T08:41:22.837Z,60.42
2022-11-05T08:42:24.378Z,60.76
2022-11-05T08:43:26.109Z,60.99
2022-11-05T08:44:29.469Z,60.85
2022-11-05T08:45:31.192Z,60.53
2022-11-05T08:46:35.430Z,60.06
2022-11-05T08:47:40.484Z,59.88
2022-11-05T08:48:42.038Z,59.79
2022-11-05T08:49:43.514Z,60.15
2022-11-05T08:50:45.441Z,60.04
2022-11-05T08:51:46.930Z,60.24
2022-11-05T08:52:48.407Z,60.33
2022-11-05T08:53:49.912Z,60.14
2022-11-05T08:54:51.426Z,60.05
2022-11-05T08:55:52.856Z,59.86
2022-11-05T08:56:54.389Z,60.42
2022-11-05T08:57:56.587Z,60.71
2022-11-05T08:58:58.090Z,61.20
2022-11-05T08:59:59.986Z,61.04
2022-11-05T09:01:04.981Z,60.60
2022-11-05T09:02:07.154Z,60.78
2022-11-05T09:03:08.897Z,60.72
2022-11-05T09:04:10.815Z,60.38
2022-11-05T09:05:12.442Z,60.60
2022-11-05T09:06:14.553Z,60.67
2022-11-05T09:07:16.046Z,61.04
2022-11-05T09:08:17.894Z,60.21
2022-11-05T09:09:19.381Z,60.19
2022-11-05T09:10:20.901Z,59.67
2022-11-05T09:11:22.399Z,59.70
2022-11-05T09:12:23.904Z,60.08
2022-11-05T09:13:25.775Z,60.69
2022-11-05T09:14:27.440Z,60.08
2022-11-05T09:15:28.942Z,59.46
2022-11-05T09:16:32.553Z,59.59
2022-11-05T09:17:34.018Z,59.72
2022-11-05T09:18:35.645Z,59.65
2022-11-05T09:19:39.946Z,59.84
2022-11-05T09:20:41.850Z,59.89
2022-11-05T09:21:43.354Z,60.83
2022-11-05T09:22:45.073Z,60.13
2022-11-05T09:23:46.816Z,58.79
2022-11-05T09:24:48.281Z,57.77
2022-11-05T09:25:49.803Z,58.24
2022-11-05T09:26:51.379Z,58.24
2022-11-05T09:27:52.839Z,58.56
2022-11-05T09:28:54.346Z,58.00
2022-11-05T09:29:55.822Z,57.55
2022-11-05T09:30:57.291Z,56.73
2022-11-05T09:31:58.741Z,57.10
2022-11-05T09:33:00.247Z,57.53
2022-11-05T09:34:01.772Z,57.69
2022-11-05T09:35:03.758Z,55.80
2022-11-05T09:36:05.484Z,54.19
2022-11-05T09:37:06.951Z,54.49
2022-11-05T09:38:08.493Z,54.24
2022-11-05T09:39:10.003Z,52.41
2022-11-05T09:40:14.412Z,52.33
2022-11-05T09:41:51.429Z,52.56
2022-11-05T09:42:54.918Z,52.04
2022-11-05T09:43:57.574Z,52.07
2022-11-05T09:45:02.324Z,53.00
2022-11-05T09:46:15.055Z,53.32
2022-11-05T09:47:20.748Z,52.41
2022-11-05T09:48:23.433Z,52.62
2022-11-05T09:49:25.126Z,52.06
2022-11-05T09:50:46.841Z,51.14
2022-11-05T09:51:48.353Z,48.29
2022-11-05T09:52:49.801Z,47.78
2022-11-05T09:53:51.417Z,48.13
2022-11-05T09:54:53.037Z,47.64
2022-11-05T09:55:55.494Z,47.70
2022-11-05T09:56:56.993Z,47.06
2022-11-05T09:57:59.549Z,48.17
2022-11-05T09:59:26.904Z,49.24
2022-11-05T10:00:28.863Z,49.35
2022-11-05T10:01:31.241Z,48.65
2022-11-05T10:02:33.640Z,47.83
2022-11-05T10:03:35.189Z,47.19
2022-11-05T10:04:36.718Z,47.09
2022-11-05T10:05:38.243Z,45.93
2022-11-05T10:06:42.885Z,45.56
2022-11-05T10:07:53.077Z,45.63
2022-11-05T10:09:20.332Z,45.32
2022-11-05T10:10:23.144Z,45.75
2022-11-05T10:11:35.502Z,46.68
2022-11-05T10:12:56.193Z,45.01
2022-11-05T10:13:59.502Z,45.41
2022-11-05T10:15:01.050Z,45.49
2022-11-05T10:16:03.884Z,45.49
2022-11-05T10:17:09.513Z,44.26
2022-11-05T10:18:15.373Z,42.67
2022-11-05T10:19:24.246Z,42.75
2022-11-05T10:20:31.357Z,42.83
2022-11-05T10:22:04.289Z,41.99
2022-11-05T10:22:55.314Z,42.55
2022-11-05T10:23:56.795Z,42.12
2022-11-05T10:24:58.324Z,42.81
2022-11-05T10:26:03.797Z,43.54
2022-11-05T10:27:05.247Z,43.80
2022-11-05T10:28:07.359Z,43.67
2022-11-05T10:29:11.491Z,44.02
2022-11-05T10:30:14.175Z,43.02
2022-11-05T10:31:17.145Z,43.18
2022-11-05T10:32:24.336Z,43.85
2022-11-05T10:33:40.029Z,43.30
2022-11-05T10:34:41.539Z,42.83
2022-11-05T10:35:47.597Z,42.82
2022-11-05T10:36:49.069Z,43.24
2022-11-05T10:37:50.632Z,43.32
2022-11-05T10:38:53.069Z,43.21
2022-11-05T10:39:54.582Z,43.25
2022-11-05T10:41:14.715Z,42.95
2022-11-05T10:42:18.966Z,40.83
2022-11-05T10:43:20.419Z,42.06
2022-11-05T10:44:33.713Z,41.79
2022-11-05T10:45:38.447Z,41.57
2022-11-05T10:46:46.276Z,42.16
2022-11-05T10:47:50.670Z,42.96
2022-11-05T10:49:11.203Z,41.83
2022-11-05T10:50:13.781Z,42.62
2022-11-05T10:51:15.278Z,42.46
2022-11-05T10:52:20.868Z,43.06
2022-11-05T10:53:24.035Z,43.26
2022-11-05T10:54:26.588Z,42.57
2022-11-05T10:55:29.283Z,42.38
2022-11-05T10:56:37.649Z,42.02
2022-11-05T10:57:39.813Z,42.46
2022-11-05T10:58:42.134Z,40.84
2022-11-05T10:59:43.620Z,40.90
2022-11-05T11:00:53.888Z,41.07
2022-11-05T11:01:59.859Z,41.58
2022-11-05T11:03:02.105Z,41.75
2022-11-05T11:04:05.227Z,41.97
2022-11-05T11:05:06.694Z,42.48
2022-11-05T11:06:26.977Z,42.64
2022-11-05T11:07:28.453Z,42.02
2022-11-05T11:08:29.958Z,42.14
2022-11-05T11:09:32.181Z,42.44
2022-11-05T11:10:36.301Z,42.82
2022-11-05T11:11:39.034Z,41.98
2022-11-05T11:12:42.286Z,42.36
2022-11-05T11:13:51.487Z,43.67
2022-11-05T11:15:13.084Z,43.52
2022-11-05T11:16:15.870Z,43.39
2022-11-05T11:17:27.656Z,43.75
2022-11-05T11:18:33.361Z,43.75
2022-11-05T11:19:37.427Z,44.43
2022-11-05T11:20:39.033Z,45.08
2022-11-05T11:21:41.740Z,44.78
2022-11-05T11:22:49.107Z,44.21
2022-11-05T11:24:00.829Z,44.63
2022-11-05T11:25:02.310Z,44.92
2022-11-05T11:26:04.182Z,44.59
2022-11-05T11:27:06.726Z,44.66
2022-11-05T11:28:10.892Z,43.86
2022-11-05T11:29:28.078Z,43.73
2022-11-05T11:30:29.597Z,43.63
2022-11-05T11:31:31.682Z,43.42
2022-11-05T11:32:34.136Z,43.54
2022-11-05T11:33:35.730Z,43.63
2022-11-05T11:34:38.928Z,43.58
2022-11-05T11:35:40.442Z,43.41
2022-11-05T11:36:45.729Z,43.47
2022-11-05T11:37:47.203Z,43.92
2022-11-05T11:38:48.687Z,43.88
2022-11-05T11:39:54.842Z,43.95
2022-11-05T11:41:19.170Z,43.69
2022-11-05T11:42:22.115Z,43.80
2022-11-05T11:43:26.496Z,43.40
2022-11-05T11:44:31.807Z,43.53
2022-11-05T11:45:35.796Z,44.05
2022-11-05T11:46:37.321Z,44.56
2022-11-05T11:47:38.800Z,44.64
2022-11-05T11:48:40.652Z,44.64
2022-11-05T11:49:42.170Z,44.92
2022-11-05T11:50:44.243Z,44.73
2022-11-05T11:51:49.949Z,44.87
2022-11-05T11:52:51.900Z,44.89
2022-11-05T11:53:56.002Z,45.50
2022-11-05T11:55:09.505Z,45.64
2022-11-05T11:56:20.439Z,46.31
2022-11-05T11:57:28.442Z,46.22
2022-11-05T11:58:39.660Z,46.43
2022-11-05T12:00:10.347Z,46.31
2022-11-05T12:01:20.244Z,46.17
2022-11-05T12:02:30.324Z,45.36
2022-11-05T12:03:35.388Z,46.63
2022-11-05T12:04:43.289Z,46.33
2022-11-05T12:05:47.910Z,46.88
2022-11-05T12:07:08.013Z,46.64
2022-11-05T12:08:12.234Z,45.73
2022-11-05T12:09:13.737Z,45.75
2022-11-05T12:10:21.019Z,45.48
2022-11-05T12:11:25.357Z,45.56
2022-11-05T12:12:38.814Z,45.80
2022-11-05T12:13:43.038Z,45.59
2022-11-05T12:15:02.031Z,45.38
2022-11-05T12:16:03.491Z,45.03
2022-11-05T12:17:25.221Z,45.06
2022-11-05T12:18:30.138Z,45.51
2022-11-05T12:19:37.518Z,45.43
2022-11-05T12:20:48.477Z,45.62
2022-11-05T12:22:03.094Z,45.67
2022-11-05T12:23:04.586Z,45.50
2022-11-05T12:24:21.868Z,45.54
2022-11-05T12:25:27.857Z,45.62
2022-11-05T12:26:32.533Z,45.39
2022-11-05T12:27:36.986Z,45.27
2022-11-05T12:29:12.193Z,45.42
2022-11-05T12:30:19.617Z,45.50
2022-11-05T12:31:23.666Z,45.23
2022-11-05T12:32:40.576Z,44.52
2022-11-05T12:33:48.358Z,44.81
2022-11-05T12:35:07.478Z,44.75
2022-11-05T12:36:12.490Z,44.89
2022-11-05T12:37:32.393Z,45.38
2022-11-05T12:38:33.870Z,45.13
2022-11-05T12:39:39.682Z,44.88
2022-11-05T12:40:49.766Z,45.12
2022-11-05T12:41:56.822Z,45.38
2022-11-05T12:43:17.537Z,45.23
2022-11-05T12:44:25.290Z,45.31
2022-11-05T12:45:36.729Z,45.87
2022-11-05T12:46:40.393Z,46.15
2022-11-05T12:47:42.015Z,46.05
2022-11-05T12:48:43.522Z,46.40
2022-11-05T12:49:48.058Z,46.43
2022-11-05T12:50:59.342Z,46.38
2022-11-05T12:52:19.349Z,46.31
2022-11-05T12:53:21.027Z,46.33
2022-11-05T12:54:41.951Z,46.04
2022-11-05T12:55:48.531Z,46.20
2022-11-05T12:56:52.480Z,46.63
2022-11-05T12:57:55.091Z,46.66
2022-11-05T12:59:01.602Z,46.63
2022-11-05T13:00:06.384Z,46.31
2022-11-05T13:01:09.443Z,46.66
2022-11-05T13:02:31.182Z,46.86
2022-11-05T13:03:47.789Z,47.10
2022-11-05T13:04:49.296Z,47.09
2022-11-05T13:05:50.741Z,47.21
2022-11-05T13:06:52.849Z,47.57
2022-11-05T13:07:56.725Z,47.70
2022-11-05T13:09:00.577Z,47.45
2022-11-05T13:10:06.377Z,47.68
2022-11-05T13:11:21.609Z,47.83
2022-11-05T13:12:24.140Z,47.99
2022-11-05T13:13:33.750Z,48.09
2022-11-05T13:14:38.297Z,47.54
2022-11-05T13:15:40.252Z,47.87
2022-11-05T13:16:43.336Z,48.12
2022-11-05T13:17:55.776Z,48.03
2022-11-05T13:19:03.003Z,48.15
2022-11-05T13:20:17.345Z,48.65
2022-11-05T13:21:20.034Z,48.96
2022-11-05T13:22:29.275Z,48.87
2022-11-05T13:23:36.775Z,48.84
2022-11-05T13:24:50.932Z,48.44
2022-11-05T13:25:58.032Z,48.27
2022-11-05T13:27:01.092Z,48.38
2022-11-05T13:28:04.996Z,48.24
2022-11-05T13:29:07.857Z,48.46
2022-11-05T13:30:12.621Z,48.92
2022-11-05T13:31:15.586Z,48.87
2022-11-05T13:32:29.333Z,48.96
2022-11-05T13:33:30.756Z,49.32
2022-11-05T13:34:37.239Z,49.47
2022-11-05T13:36:14.357Z,49.83
2022-11-05T13:37:34.647Z,49.69
2022-11-05T13:38:54.842Z,49.87
2022-11-05T13:39:57.572Z,49.69
2022-11-05T13:41:02.189Z,49.89
2022-11-05T13:42:03.710Z,50.21
2022-11-05T13:43:15.926Z,50.17
2022-11-05T13:44:26.167Z,49.83
2022-11-05T13:45:36.745Z,49.54
2022-11-05T13:46:38.175Z,49.67
2022-11-05T13:47:58.077Z,49.37
2022-11-05T13:49:03.954Z,49.63
2022-11-05T13:50:24.141Z,49.58
2022-11-05T13:51:37.672Z,49.79
2022-11-05T13:52:59.673Z,49.87
2022-11-05T13:54:19.589Z,50.35
2022-11-05T13:55:30.010Z,50.10
2022-11-05T13:56:40.381Z,49.84
2022-11-05T13:57:48.134Z,49.88
2022-11-05T13:58:55.459Z,49.97
2022-11-05T14:00:15.841Z,49.85